sensor_id;sensor_type;location;lat;lon;timestamp;temperature;humidity
8709;DHT22;4391;48.678;9.280;2023-04-03T00:02:12;3.70;1.00
8709;DHT22;4391;48.678;9.280;2023-04-03T00:04:39;3.60;1.00
8709;DHT22;4391;48.678;9.280;2023-04-03T00:07:06;3.60;1.00
8709;DHT22;4391;48.678;9.280;2023-04-03T00:09:33;3.60;99.90
8709;DHT22;4391;48.678;9.280;2023-04-03T00:12:00;3.60;99.90
8709;DHT22;4391;48.678;9.280;2023-04-03T00:14:26;3.50;4.20
8709;DHT22;4391;48.678;9.280;2023-04-03T00:16:53;3.50;99.90
8709;DHT22;4391;48.678;9.280;2023-04-03T00:19:22;3.50;1.00
8709;DHT22;4391;48.678;9.280;2023-04-03T00:21:48;3.50;1.00
8709;DHT22;4391;48.678;9.280;2023-04-03T00:24:15;3.40;1.00
8709;DHT22;4391;48.678;9.280;2023-04-03T00:26:42;3.40;99.90
8709;DHT22;4391;48.678;9.280;2023-04-03T00:29:09;3.30;99.90
8709;DHT22;4391;48.678;9.280;2023-04-03T00:31:36;3.20;99.90
8709;DHT22;4391;48.678;9.280;2023-04-03T00:34:02;3.20;99.90
8709;DHT22;4391;48.678;9.280;2023-04-03T00:36:31;3.10;99.90
8709;DHT22;4391;48.678;9.280;2023-04-03T00:38:57;3.10;99.90
8709;DHT22;4391;48.678;9.280;2023-04-03T00:44:00;3.10;99.90
8709;DHT22;4391;48.678;9.280;2023-04-03T00:46:26;3.00;99.90
8709;DHT22;4391;48.678;9.280;2023-04-03T00:48:53;3.00;99.90
8709;DHT22;4391;48.678;9.280;2023-04-03T00:51:23;3.00;1.00
8709;DHT22;4391;48.678;9.280;2023-04-03T00:53:55;3.10;1.00
8709;DHT22;4391;48.678;9.280;2023-04-03T00:56:25;3.00;1.00
8709;DHT22;4391;48.678;9.280;2023-04-03T00:58:55;3.00;1.00
8709;DHT22;4391;48.678;9.280;2023-04-03T01:01:27;3.00;1.00
8709;DHT22;4391;48.678;9.280;2023-04-03T01:03:54;3.00;99.90
8709;DHT22;4391;48.678;9.280;2023-04-03T01:06:25;3.10;99.90
8709;DHT22;4391;48.678;9.280;2023-04-03T01:08:55;3.10;1.00
8709;DHT22;4391;48.678;9.280;2023-04-03T01:11:22;3.10;99.90
8709;DHT22;4391;48.678;9.280;2023-04-03T01:13:49;3.10;99.90
8709;DHT22;4391;48.678;9.280;2023-04-03T01:16:16;3.10;99.90
8709;DHT22;4391;48.678;9.280;2023-04-03T01:18:43;3.10;99.90
8709;DHT22;4391;48.678;9.280;2023-04-03T01:21:36;3.10;99.90
8709;DHT22;4391;48.678;9.280;2023-04-03T01:24:21;3.10;99.90
8709;DHT22;4391;48.678;9.280;2023-04-03T01:26:50;3.00;99.90
8709;DHT22;4391;48.678;9.280;2023-04-03T01:29:17;3.00;99.90
8709;DHT22;4391;48.678;9.280;2023-04-03T01:31:51;3.00;99.90
8709;DHT22;4391;48.678;9.280;2023-04-03T01:34:18;3.00;99.90
8709;DHT22;4391;48.678;9.280;2023-04-03T01:36:45;3.00;99.90
8709;DHT22;4391;48.678;9.280;2023-04-03T01:39:12;3.00;99.90
8709;DHT22;4391;48.678;9.280;2023-04-03T01:41:39;3.00;99.90
8709;DHT22;4391;48.678;9.280;2023-04-03T01:44:06;3.00;99.90
8709;DHT22;4391;48.678;9.280;2023-04-03T01:46:33;3.00;99.90
8709;DHT22;4391;48.678;9.280;2023-04-03T01:49:02;3.00;99.90
8709;DHT22;4391;48.678;9.280;2023-04-03T01:51:29;3.00;99.90
8709;DHT22;4391;48.678;9.280;2023-04-03T01:53:56;2.90;1.00
8709;DHT22;4391;48.678;9.280;2023-04-03T01:56:23;2.90;1.00
8709;DHT22;4391;48.678;9.280;2023-04-03T01:58:50;2.90;1.00
8709;DHT22;4391;48.678;9.280;2023-04-03T02:01:17;2.90;1.00
8709;DHT22;4391;48.678;9.280;2023-04-03T02:03:44;2.90;99.90
8709;DHT22;4391;48.678;9.280;2023-04-03T02:06:12;2.90;99.90
8709;DHT22;4391;48.678;9.280;2023-04-03T02:08:39;2.90;99.90
8709;DHT22;4391;48.678;9.280;2023-04-03T02:11:07;2.90;99.90
8709;DHT22;4391;48.678;9.280;2023-04-03T02:13:33;2.90;1.00
8709;DHT22;4391;48.678;9.280;2023-04-03T02:16:07;2.90;99.90
8709;DHT22;4391;48.678;9.280;2023-04-03T02:18:34;2.90;99.90
8709;DHT22;4391;48.678;9.280;2023-04-03T02:21:00;2.90;99.90
8709;DHT22;4391;48.678;9.280;2023-04-03T02:23:28;2.90;99.90
8709;DHT22;4391;48.678;9.280;2023-04-03T02:26:03;3.00;99.90
8709;DHT22;4391;48.678;9.280;2023-04-03T02:28:31;3.00;99.90
8709;DHT22;4391;48.678;9.280;2023-04-03T02:30:58;3.00;99.90
8709;DHT22;4391;48.678;9.280;2023-04-03T02:33:25;3.10;99.90
8709;DHT22;4391;48.678;9.280;2023-04-03T02:35:53;3.10;99.90
8709;DHT22;4391;48.678;9.280;2023-04-03T02:38:21;3.10;99.90
8709;DHT22;4391;48.678;9.280;2023-04-03T02:40:49;3.00;1.00
8709;DHT22;4391;48.678;9.280;2023-04-03T02:43:16;3.00;99.90
8709;DHT22;4391;48.678;9.280;2023-04-03T02:45:43;3.00;1.00
8709;DHT22;4391;48.678;9.280;2023-04-03T02:48:10;3.00;99.90
8709;DHT22;4391;48.678;9.280;2023-04-03T02:50:37;3.10;1.00
8709;DHT22;4391;48.678;9.280;2023-04-03T02:53:04;3.00;5.20
8709;DHT22;4391;48.678;9.280;2023-04-03T02:55:31;3.10;1.00
8709;DHT22;4391;48.678;9.280;2023-04-03T02:57:59;3.00;99.90
8709;DHT22;4391;48.678;9.280;2023-04-03T03:00:26;3.00;1.00
8709;DHT22;4391;48.678;9.280;2023-04-03T03:02:52;3.00;1.00
8709;DHT22;4391;48.678;9.280;2023-04-03T03:05:19;3.00;1.00
8709;DHT22;4391;48.678;9.280;2023-04-03T03:07:46;3.00;99.90
8709;DHT22;4391;48.678;9.280;2023-04-03T03:10:13;3.00;99.90
8709;DHT22;4391;48.678;9.280;2023-04-03T03:12:40;3.00;99.90
8709;DHT22;4391;48.678;9.280;2023-04-03T03:15:09;3.00;1.00
8709;DHT22;4391;48.678;9.280;2023-04-03T03:17:36;3.00;99.90
8709;DHT22;4391;48.678;9.280;2023-04-03T03:20:03;3.00;99.90
8709;DHT22;4391;48.678;9.280;2023-04-03T03:22:30;3.00;99.90
8709;DHT22;4391;48.678;9.280;2023-04-03T03:24:57;3.00;1.00
8709;DHT22;4391;48.678;9.280;2023-04-03T03:27:24;3.10;1.00
8709;DHT22;4391;48.678;9.280;2023-04-03T03:29:51;3.00;99.90
8709;DHT22;4391;48.678;9.280;2023-04-03T03:32:19;3.10;99.90
8709;DHT22;4391;48.678;9.280;2023-04-03T03:34:46;3.10;17.30
8709;DHT22;4391;48.678;9.280;2023-04-03T03:37:13;3.10;99.90
8709;DHT22;4391;48.678;9.280;2023-04-03T03:39:39;3.10;1.00
8709;DHT22;4391;48.678;9.280;2023-04-03T03:42:06;3.10;59.60
8709;DHT22;4391;48.678;9.280;2023-04-03T03:44:33;3.10;1.00
8709;DHT22;4391;48.678;9.280;2023-04-03T03:47:00;3.10;1.00
8709;DHT22;4391;48.678;9.280;2023-04-03T03:49:28;3.10;1.00
8709;DHT22;4391;48.678;9.280;2023-04-03T03:51:55;3.10;99.90
8709;DHT22;4391;48.678;9.280;2023-04-03T03:54:22;3.10;99.90
8709;DHT22;4391;48.678;9.280;2023-04-03T03:56:48;3.10;1.00
8709;DHT22;4391;48.678;9.280;2023-04-03T03:59:15;3.10;99.90
8709;DHT22;4391;48.678;9.280;2023-04-03T04:01:42;3.10;99.90
8709;DHT22;4391;48.678;9.280;2023-04-03T04:04:09;3.10;99.90
8709;DHT22;4391;48.678;9.280;2023-04-03T04:06:37;3.10;1.00
8709;DHT22;4391;48.678;9.280;2023-04-03T04:09:04;3.10;90.00
8709;DHT22;4391;48.678;9.280;2023-04-03T04:11:31;3.10;99.90
8709;DHT22;4391;48.678;9.280;2023-04-03T04:13:58;3.10;99.90
8709;DHT22;4391;48.678;9.280;2023-04-03T04:16:25;3.10;99.90
8709;DHT22;4391;48.678;9.280;2023-04-03T04:18:52;3.10;99.90
8709;DHT22;4391;48.678;9.280;2023-04-03T04:21:19;3.10;1.00
8709;DHT22;4391;48.678;9.280;2023-04-03T04:23:47;3.10;1.00
8709;DHT22;4391;48.678;9.280;2023-04-03T04:26:14;3.10;99.90
8709;DHT22;4391;48.678;9.280;2023-04-03T04:28:40;3.10;1.00
8709;DHT22;4391;48.678;9.280;2023-04-03T04:31:07;3.10;99.90
8709;DHT22;4391;48.678;9.280;2023-04-03T04:33:34;3.10;73.40
8709;DHT22;4391;48.678;9.280;2023-04-03T04:36:01;3.10;1.00
8709;DHT22;4391;48.678;9.280;2023-04-03T04:38:28;3.10;1.00
8709;DHT22;4391;48.678;9.280;2023-04-03T04:40:56;3.10;1.00
8709;DHT22;4391;48.678;9.280;2023-04-03T04:43:23;3.10;1.00
8709;DHT22;4391;48.678;9.280;2023-04-03T04:46:00;3.10;99.90
8709;DHT22;4391;48.678;9.280;2023-04-03T04:48:27;3.10;99.90
8709;DHT22;4391;48.678;9.280;2023-04-03T04:50:54;3.10;1.00
8709;DHT22;4391;48.678;9.280;2023-04-03T04:53:20;3.10;1.00
8709;DHT22;4391;48.678;9.280;2023-04-03T04:55:47;3.10;99.90
8709;DHT22;4391;48.678;9.280;2023-04-03T04:58:15;3.10;99.90
8709;DHT22;4391;48.678;9.280;2023-04-03T05:00:42;3.10;99.90
8709;DHT22;4391;48.678;9.280;2023-04-03T05:03:09;3.10;99.90
8709;DHT22;4391;48.678;9.280;2023-04-03T05:05:36;3.10;99.90
8709;DHT22;4391;48.678;9.280;2023-04-03T05:08:03;3.10;99.90
8709;DHT22;4391;48.678;9.280;2023-04-03T05:10:30;3.10;99.90
8709;DHT22;4391;48.678;9.280;2023-04-03T05:12:57;3.10;99.90
8709;DHT22;4391;48.678;9.280;2023-04-03T05:15:26;3.10;99.90
8709;DHT22;4391;48.678;9.280;2023-04-03T05:17:52;3.20;99.90
8709;DHT22;4391;48.678;9.280;2023-04-03T05:20:19;3.20;99.90
8709;DHT22;4391;48.678;9.280;2023-04-03T05:22:46;3.20;99.90
8709;DHT22;4391;48.678;9.280;2023-04-03T05:25:13;3.20;99.90
8709;DHT22;4391;48.678;9.280;2023-04-03T05:27:40;3.20;99.90
8709;DHT22;4391;48.678;9.280;2023-04-03T05:30:07;3.30;99.90
8709;DHT22;4391;48.678;9.280;2023-04-03T05:32:36;3.30;54.90
8709;DHT22;4391;48.678;9.280;2023-04-03T05:35:04;3.30;36.00
8709;DHT22;4391;48.678;9.280;2023-04-03T05:37:31;3.40;1.00
8709;DHT22;4391;48.678;9.280;2023-04-03T05:39:58;3.40;2.30
8709;DHT22;4391;48.678;9.280;2023-04-03T05:42:25;3.30;76.50
8709;DHT22;4391;48.678;9.280;2023-04-03T05:44:51;3.20;99.90
8709;DHT22;4391;48.678;9.280;2023-04-03T05:47:18;3.20;99.90
8709;DHT22;4391;48.678;9.280;2023-04-03T05:49:47;3.30;99.90
8709;DHT22;4391;48.678;9.280;2023-04-03T05:52:20;3.20;99.90
8709;DHT22;4391;48.678;9.280;2023-04-03T05:54:47;3.30;99.90
8709;DHT22;4391;48.678;9.280;2023-04-03T05:57:14;3.30;99.90
8709;DHT22;4391;48.678;9.280;2023-04-03T05:59:42;3.40;99.90
8709;DHT22;4391;48.678;9.280;2023-04-03T06:02:10;3.40;99.90
8709;DHT22;4391;48.678;9.280;2023-04-03T06:04:38;3.40;99.90
8709;DHT22;4391;48.678;9.280;2023-04-03T06:07:06;3.50;99.90
8709;DHT22;4391;48.678;9.280;2023-04-03T06:09:34;3.50;99.90
8709;DHT22;4391;48.678;9.280;2023-04-03T06:12:01;3.50;74.00
8709;DHT22;4391;48.678;9.280;2023-04-03T06:14:27;3.60;73.80
8709;DHT22;4391;48.678;9.280;2023-04-03T06:16:54;3.70;61.10
8709;DHT22;4391;48.678;9.280;2023-04-03T06:19:22;3.80;59.60
8709;DHT22;4391;48.678;9.280;2023-04-03T06:21:49;3.80;1.00
8709;DHT22;4391;48.678;9.280;2023-04-03T06:24:18;3.90;13.20
8709;DHT22;4391;48.678;9.280;2023-04-03T06:26:45;4.00;1.00
8709;DHT22;4391;48.678;9.280;2023-04-03T06:29:12;4.00;1.00
8709;DHT22;4391;48.678;9.280;2023-04-03T06:31:39;4.10;1.00
8709;DHT22;4391;48.678;9.280;2023-04-03T06:34:06;4.10;1.00
8709;DHT22;4391;48.678;9.280;2023-04-03T06:36:34;4.10;1.00
8709;DHT22;4391;48.678;9.280;2023-04-03T06:39:01;4.20;1.00
8709;DHT22;4391;48.678;9.280;2023-04-03T06:41:30;4.30;1.00
8709;DHT22;4391;48.678;9.280;2023-04-03T06:43:57;4.40;1.00
8709;DHT22;4391;48.678;9.280;2023-04-03T06:46:25;4.50;1.00
8709;DHT22;4391;48.678;9.280;2023-04-03T06:48:53;4.60;1.00
8709;DHT22;4391;48.678;9.280;2023-04-03T06:51:22;4.80;1.00
8709;DHT22;4391;48.678;9.280;2023-04-03T06:53:50;4.80;1.00
8709;DHT22;4391;48.678;9.280;2023-04-03T06:56:18;4.90;1.00
8709;DHT22;4391;48.678;9.280;2023-04-03T06:58:46;4.90;1.00
8709;DHT22;4391;48.678;9.280;2023-04-03T07:01:15;5.00;1.00
8709;DHT22;4391;48.678;9.280;2023-04-03T07:03:43;5.00;1.00
8709;DHT22;4391;48.678;9.280;2023-04-03T07:06:12;5.10;1.00
8709;DHT22;4391;48.678;9.280;2023-04-03T07:08:39;5.20;1.00
8709;DHT22;4391;48.678;9.280;2023-04-03T07:11:08;5.40;1.00
8709;DHT22;4391;48.678;9.280;2023-04-03T07:13:35;5.40;1.00
8709;DHT22;4391;48.678;9.280;2023-04-03T07:16:04;5.40;1.00
8709;DHT22;4391;48.678;9.280;2023-04-03T07:18:32;5.30;99.90
8709;DHT22;4391;48.678;9.280;2023-04-03T07:20:59;5.40;1.00
8709;DHT22;4391;48.678;9.280;2023-04-03T07:23:25;5.40;99.90
8709;DHT22;4391;48.678;9.280;2023-04-03T07:25:53;5.50;99.90
8709;DHT22;4391;48.678;9.280;2023-04-03T07:28:22;5.60;1.00
8709;DHT22;4391;48.678;9.280;2023-04-03T07:30:53;5.70;1.00
8709;DHT22;4391;48.678;9.280;2023-04-03T07:33:22;5.80;1.00
8709;DHT22;4391;48.678;9.280;2023-04-03T07:35:49;6.00;99.90
8709;DHT22;4391;48.678;9.280;2023-04-03T07:38:16;6.20;99.90
8709;DHT22;4391;48.678;9.280;2023-04-03T07:40:46;6.40;99.90
8709;DHT22;4391;48.678;9.280;2023-04-03T07:43:13;6.60;99.90
8709;DHT22;4391;48.678;9.280;2023-04-03T07:45:40;6.60;99.90
8709;DHT22;4391;48.678;9.280;2023-04-03T07:48:07;6.50;99.90
8709;DHT22;4391;48.678;9.280;2023-04-03T07:50:35;6.40;99.90
8709;DHT22;4391;48.678;9.280;2023-04-03T07:53:02;6.50;99.90
8709;DHT22;4391;48.678;9.280;2023-04-03T07:55:29;6.60;99.90
8709;DHT22;4391;48.678;9.280;2023-04-03T07:57:56;6.70;99.90
8709;DHT22;4391;48.678;9.280;2023-04-03T08:00:23;6.90;99.90
8709;DHT22;4391;48.678;9.280;2023-04-03T08:02:50;7.00;99.90
8709;DHT22;4391;48.678;9.280;2023-04-03T08:05:17;7.20;99.90
8709;DHT22;4391;48.678;9.280;2023-04-03T08:07:46;7.40;99.90
8709;DHT22;4391;48.678;9.280;2023-04-03T08:10:14;7.40;99.90
8709;DHT22;4391;48.678;9.280;2023-04-03T08:12:41;7.60;99.90
8709;DHT22;4391;48.678;9.280;2023-04-03T08:15:09;7.80;99.90
8709;DHT22;4391;48.678;9.280;2023-04-03T08:17:36;8.10;99.90
8709;DHT22;4391;48.678;9.280;2023-04-03T08:20:04;8.30;99.90
8709;DHT22;4391;48.678;9.280;2023-04-03T08:22:32;8.40;99.90
8709;DHT22;4391;48.678;9.280;2023-04-03T08:25:01;8.40;99.90
8709;DHT22;4391;48.678;9.280;2023-04-03T08:27:28;8.40;99.90
8709;DHT22;4391;48.678;9.280;2023-04-03T08:29:54;8.50;99.90
8709;DHT22;4391;48.678;9.280;2023-04-03T08:32:22;8.80;99.90
8709;DHT22;4391;48.678;9.280;2023-04-03T08:34:49;9.10;99.90
8709;DHT22;4391;48.678;9.280;2023-04-03T08:37:16;9.20;99.90
8709;DHT22;4391;48.678;9.280;2023-04-03T08:39:43;9.30;99.90
8709;DHT22;4391;48.678;9.280;2023-04-03T08:42:18;9.20;99.90
8709;DHT22;4391;48.678;9.280;2023-04-03T08:44:48;9.30;99.90
8709;DHT22;4391;48.678;9.280;2023-04-03T08:47:24;9.10;99.90
8709;DHT22;4391;48.678;9.280;2023-04-03T08:49:56;8.90;99.90
8709;DHT22;4391;48.678;9.280;2023-04-03T08:52:30;8.70;99.90
8709;DHT22;4391;48.678;9.280;2023-04-03T08:55:00;8.60;99.90
8709;DHT22;4391;48.678;9.280;2023-04-03T08:57:33;8.30;99.90
8709;DHT22;4391;48.678;9.280;2023-04-03T09:00:03;8.20;99.90
8709;DHT22;4391;48.678;9.280;2023-04-03T09:02:33;8.10;99.90
8709;DHT22;4391;48.678;9.280;2023-04-03T09:05:02;8.00;99.90
8709;DHT22;4391;48.678;9.280;2023-04-03T09:07:36;8.10;99.90
8709;DHT22;4391;48.678;9.280;2023-04-03T09:10:06;8.30;99.90
8709;DHT22;4391;48.678;9.280;2023-04-03T09:12:37;8.20;99.90
8709;DHT22;4391;48.678;9.280;2023-04-03T09:15:13;8.20;99.90
8709;DHT22;4391;48.678;9.280;2023-04-03T09:17:49;7.90;99.90
8709;DHT22;4391;48.678;9.280;2023-04-03T09:20:22;7.60;99.90
8709;DHT22;4391;48.678;9.280;2023-04-03T09:22:52;7.40;99.90
8709;DHT22;4391;48.678;9.280;2023-04-03T09:25:21;7.60;99.90
8709;DHT22;4391;48.678;9.280;2023-04-03T09:27:51;7.80;99.90
8709;DHT22;4391;48.678;9.280;2023-04-03T09:30:20;7.90;99.90
8709;DHT22;4391;48.678;9.280;2023-04-03T09:32:50;8.50;99.90
8709;DHT22;4391;48.678;9.280;2023-04-03T09:35:21;9.10;99.90
8709;DHT22;4391;48.678;9.280;2023-04-03T09:37:50;9.80;99.90
8709;DHT22;4391;48.678;9.280;2023-04-03T09:40:32;10.10;99.90
8709;DHT22;4391;48.678;9.280;2023-04-03T09:43:19;9.80;99.90
8709;DHT22;4391;48.678;9.280;2023-04-03T09:45:49;9.90;99.90
8709;DHT22;4391;48.678;9.280;2023-04-03T09:48:19;10.00;99.90
8709;DHT22;4391;48.678;9.280;2023-04-03T09:50:55;10.00;99.90
8709;DHT22;4391;48.678;9.280;2023-04-03T09:53:29;9.90;99.90
8709;DHT22;4391;48.678;9.280;2023-04-03T09:55:57;10.00;99.90
8709;DHT22;4391;48.678;9.280;2023-04-03T09:58:27;10.40;99.90
8709;DHT22;4391;48.678;9.280;2023-04-03T10:00:57;10.10;99.90
8709;DHT22;4391;48.678;9.280;2023-04-03T10:03:27;9.90;99.90
8709;DHT22;4391;48.678;9.280;2023-04-03T10:05:54;9.80;99.90
8709;DHT22;4391;48.678;9.280;2023-04-03T10:08:26;10.30;99.90
8709;DHT22;4391;48.678;9.280;2023-04-03T10:11:09;10.40;99.90
8709;DHT22;4391;48.678;9.280;2023-04-03T10:13:49;10.40;99.90
8709;DHT22;4391;48.678;9.280;2023-04-03T10:16:18;10.30;99.90
8709;DHT22;4391;48.678;9.280;2023-04-03T10:18:49;10.10;99.90
8709;DHT22;4391;48.678;9.280;2023-04-03T10:21:29;10.40;99.90
8709;DHT22;4391;48.678;9.280;2023-04-03T10:24:06;10.50;99.90
8709;DHT22;4391;48.678;9.280;2023-04-03T10:26:41;10.40;99.90
8709;DHT22;4391;48.678;9.280;2023-04-03T10:29:27;10.10;99.90
8709;DHT22;4391;48.678;9.280;2023-04-03T10:32:14;10.00;99.90
8709;DHT22;4391;48.678;9.280;2023-04-03T10:34:45;9.90;99.90
8709;DHT22;4391;48.678;9.280;2023-04-03T10:37:18;9.80;99.90
8709;DHT22;4391;48.678;9.280;2023-04-03T10:39:51;9.70;99.90
8709;DHT22;4391;48.678;9.280;2023-04-03T10:42:27;9.70;99.90
8709;DHT22;4391;48.678;9.280;2023-04-03T10:45:07;9.80;99.90
8709;DHT22;4391;48.678;9.280;2023-04-03T10:47:40;9.60;99.90
8709;DHT22;4391;48.678;9.280;2023-04-03T10:50:23;9.00;99.90
8709;DHT22;4391;48.678;9.280;2023-04-03T10:52:57;8.30;99.90
8709;DHT22;4391;48.678;9.280;2023-04-03T10:55:35;8.30;99.90
8709;DHT22;4391;48.678;9.280;2023-04-03T10:58:04;8.00;99.90
8709;DHT22;4391;48.678;9.280;2023-04-03T11:00:38;7.80;99.90
8709;DHT22;4391;48.678;9.280;2023-04-03T11:03:12;7.70;99.90
8709;DHT22;4391;48.678;9.280;2023-04-03T11:05:43;7.50;99.90
8709;DHT22;4391;48.678;9.280;2023-04-03T11:08:16;7.40;99.90
8709;DHT22;4391;48.678;9.280;2023-04-03T11:10:47;7.50;99.90
8709;DHT22;4391;48.678;9.280;2023-04-03T11:13:18;7.50;99.90
8709;DHT22;4391;48.678;9.280;2023-04-03T11:15:48;7.40;99.90
8709;DHT22;4391;48.678;9.280;2023-04-03T11:18:19;7.50;99.90
8709;DHT22;4391;48.678;9.280;2023-04-03T11:20:53;7.50;99.90
8709;DHT22;4391;48.678;9.280;2023-04-03T11:23:26;7.60;99.90
8709;DHT22;4391;48.678;9.280;2023-04-03T11:25:56;7.80;99.90
8709;DHT22;4391;48.678;9.280;2023-04-03T11:28:24;7.90;99.90
8709;DHT22;4391;48.678;9.280;2023-04-03T11:30:59;8.10;99.90
8709;DHT22;4391;48.678;9.280;2023-04-03T11:33:36;8.10;99.90
8709;DHT22;4391;48.678;9.280;2023-04-03T11:36:08;8.00;99.90
8709;DHT22;4391;48.678;9.280;2023-04-03T11:38:37;8.00;99.90
8709;DHT22;4391;48.678;9.280;2023-04-03T11:41:08;8.00;99.90
8709;DHT22;4391;48.678;9.280;2023-04-03T11:43:40;8.00;99.90
8709;DHT22;4391;48.678;9.280;2023-04-03T11:46:09;8.10;99.90
8709;DHT22;4391;48.678;9.280;2023-04-03T11:48:46;8.20;99.90
8709;DHT22;4391;48.678;9.280;2023-04-03T11:54:50;8.20;99.90
8709;DHT22;4391;48.678;9.280;2023-04-03T11:57:43;7.90;99.90
8709;DHT22;4391;48.678;9.280;2023-04-03T12:00:48;7.80;99.90
8709;DHT22;4391;48.678;9.280;2023-04-03T12:09:34;7.40;99.90
8709;DHT22;4391;48.678;9.280;2023-04-03T12:12:22;7.40;99.90
8709;DHT22;4391;48.678;9.280;2023-04-03T12:14:51;7.50;99.90
8709;DHT22;4391;48.678;9.280;2023-04-03T12:17:22;7.60;99.90
8709;DHT22;4391;48.678;9.280;2023-04-03T12:19:50;7.60;99.90
8709;DHT22;4391;48.678;9.280;2023-04-03T12:22:21;7.70;99.90
8709;DHT22;4391;48.678;9.280;2023-04-03T12:24:51;8.00;99.90
8709;DHT22;4391;48.678;9.280;2023-04-03T12:27:23;8.30;99.90
8709;DHT22;4391;48.678;9.280;2023-04-03T12:29:54;8.70;99.90
8709;DHT22;4391;48.678;9.280;2023-04-03T12:32:43;9.00;99.90
8709;DHT22;4391;48.678;9.280;2023-04-03T12:35:21;9.10;99.90
8709;DHT22;4391;48.678;9.280;2023-04-03T12:41:23;8.90;99.90
8709;DHT22;4391;48.678;9.280;2023-04-03T12:44:07;8.40;99.90
8709;DHT22;4391;48.678;9.280;2023-04-03T12:46:37;8.10;99.90
8709;DHT22;4391;48.678;9.280;2023-04-03T12:49:20;8.00;99.90
8709;DHT22;4391;48.678;9.280;2023-04-03T12:51:49;7.90;99.90
8709;DHT22;4391;48.678;9.280;2023-04-03T12:54:19;8.00;99.90
8709;DHT22;4391;48.678;9.280;2023-04-03T12:56:48;8.00;99.90
8709;DHT22;4391;48.678;9.280;2023-04-03T12:59:18;8.10;99.90
8709;DHT22;4391;48.678;9.280;2023-04-03T13:01:53;8.00;99.90
8709;DHT22;4391;48.678;9.280;2023-04-03T13:04:20;8.10;99.90
8709;DHT22;4391;48.678;9.280;2023-04-03T13:06:48;8.50;99.90
8709;DHT22;4391;48.678;9.280;2023-04-03T13:09:20;8.90;99.90
8709;DHT22;4391;48.678;9.280;2023-04-03T13:11:51;9.30;99.90
8709;DHT22;4391;48.678;9.280;2023-04-03T13:14:20;9.70;99.90
8709;DHT22;4391;48.678;9.280;2023-04-03T13:16:57;10.00;99.90
8709;DHT22;4391;48.678;9.280;2023-04-03T13:19:25;10.30;99.90
8709;DHT22;4391;48.678;9.280;2023-04-03T13:21:57;10.20;99.90
8709;DHT22;4391;48.678;9.280;2023-04-03T13:24:25;9.80;99.90
8709;DHT22;4391;48.678;9.280;2023-04-03T13:26:54;9.50;99.90
8709;DHT22;4391;48.678;9.280;2023-04-03T13:29:24;9.20;99.90
8709;DHT22;4391;48.678;9.280;2023-04-03T13:31:53;8.80;99.90
8709;DHT22;4391;48.678;9.280;2023-04-03T13:34:22;8.30;99.90
8709;DHT22;4391;48.678;9.280;2023-04-03T13:36:56;8.20;99.90
8709;DHT22;4391;48.678;9.280;2023-04-03T13:39:26;8.30;99.90
8709;DHT22;4391;48.678;9.280;2023-04-03T13:41:56;8.30;99.90
8709;DHT22;4391;48.678;9.280;2023-04-03T13:44:30;8.40;99.90
8709;DHT22;4391;48.678;9.280;2023-04-03T13:46:59;8.50;99.90
8709;DHT22;4391;48.678;9.280;2023-04-03T13:49:32;8.80;99.90
8709;DHT22;4391;48.678;9.280;2023-04-03T13:52:01;8.90;99.90
8709;DHT22;4391;48.678;9.280;2023-04-03T13:54:32;8.80;99.90
8709;DHT22;4391;48.678;9.280;2023-04-03T13:57:03;8.70;99.90
8709;DHT22;4391;48.678;9.280;2023-04-03T13:59:38;8.80;99.90
8709;DHT22;4391;48.678;9.280;2023-04-03T14:02:16;8.90;99.90
8709;DHT22;4391;48.678;9.280;2023-04-03T14:04:53;9.00;99.90
8709;DHT22;4391;48.678;9.280;2023-04-03T14:07:24;9.10;99.90
8709;DHT22;4391;48.678;9.280;2023-04-03T14:09:51;9.30;99.90
8709;DHT22;4391;48.678;9.280;2023-04-03T14:12:26;9.40;99.90
8709;DHT22;4391;48.678;9.280;2023-04-03T14:14:53;11.30;99.90
8709;DHT22;4391;48.678;9.280;2023-04-03T14:17:23;14.70;99.90
8709;DHT22;4391;48.678;9.280;2023-04-03T14:19:52;16.20;99.90
8709;DHT22;4391;48.678;9.280;2023-04-03T14:22:21;16.20;99.90
8709;DHT22;4391;48.678;9.280;2023-04-03T14:24:49;15.50;99.90
8709;DHT22;4391;48.678;9.280;2023-04-03T14:27:20;14.30;99.90
8709;DHT22;4391;48.678;9.280;2023-04-03T14:29:48;12.90;99.90
8709;DHT22;4391;48.678;9.280;2023-04-03T14:32:17;11.60;99.90
8709;DHT22;4391;48.678;9.280;2023-04-03T14:34:45;10.70;99.90
8709;DHT22;4391;48.678;9.280;2023-04-03T14:37:13;9.70;99.90
8709;DHT22;4391;48.678;9.280;2023-04-03T14:39:42;9.30;99.90
8709;DHT22;4391;48.678;9.280;2023-04-03T14:42:12;8.80;99.90
8709;DHT22;4391;48.678;9.280;2023-04-03T14:44:41;8.70;99.90
8709;DHT22;4391;48.678;9.280;2023-04-03T14:47:11;8.90;99.90
8709;DHT22;4391;48.678;9.280;2023-04-03T14:49:38;9.20;99.90
8709;DHT22;4391;48.678;9.280;2023-04-03T14:52:05;10.70;99.90
8709;DHT22;4391;48.678;9.280;2023-04-03T14:54:32;11.70;99.90
8709;DHT22;4391;48.678;9.280;2023-04-03T14:57:00;11.70;99.90
8709;DHT22;4391;48.678;9.280;2023-04-03T14:59:28;10.90;99.90
8709;DHT22;4391;48.678;9.280;2023-04-03T15:01:56;9.80;99.90
8709;DHT22;4391;48.678;9.280;2023-04-03T15:04:23;9.30;99.90
8709;DHT22;4391;48.678;9.280;2023-04-03T15:06:51;8.60;99.90
8709;DHT22;4391;48.678;9.280;2023-04-03T15:09:22;8.30;99.90
8709;DHT22;4391;48.678;9.280;2023-04-03T15:11:50;8.00;99.90
8709;DHT22;4391;48.678;9.280;2023-04-03T15:14:17;8.00;99.90
8709;DHT22;4391;48.678;9.280;2023-04-03T15:16:44;7.90;99.90
8709;DHT22;4391;48.678;9.280;2023-04-03T15:19:12;7.70;99.90
8709;DHT22;4391;48.678;9.280;2023-04-03T15:21:40;7.90;99.90
8709;DHT22;4391;48.678;9.280;2023-04-03T15:24:08;8.10;99.90
8709;DHT22;4391;48.678;9.280;2023-04-03T15:26:35;8.10;99.90
8709;DHT22;4391;48.678;9.280;2023-04-03T15:29:03;8.10;99.90
8709;DHT22;4391;48.678;9.280;2023-04-03T15:31:30;8.10;99.90
8709;DHT22;4391;48.678;9.280;2023-04-03T15:33:59;8.10;99.90
8709;DHT22;4391;48.678;9.280;2023-04-03T15:36:27;7.90;99.90
8709;DHT22;4391;48.678;9.280;2023-04-03T15:38:54;7.90;99.90
8709;DHT22;4391;48.678;9.280;2023-04-03T15:41:21;7.80;99.90
8709;DHT22;4391;48.678;9.280;2023-04-03T15:43:48;7.70;99.90
8709;DHT22;4391;48.678;9.280;2023-04-03T15:46:15;7.70;99.90
8709;DHT22;4391;48.678;9.280;2023-04-03T15:48:42;7.90;99.90
8709;DHT22;4391;48.678;9.280;2023-04-03T15:51:10;8.10;99.90
8709;DHT22;4391;48.678;9.280;2023-04-03T15:53:38;8.40;99.90
8709;DHT22;4391;48.678;9.280;2023-04-03T15:56:05;8.60;99.90
8709;DHT22;4391;48.678;9.280;2023-04-03T15:58:33;9.10;99.90
8709;DHT22;4391;48.678;9.280;2023-04-03T16:01:00;9.40;99.90
8709;DHT22;4391;48.678;9.280;2023-04-03T16:03:27;9.10;99.90
8709;DHT22;4391;48.678;9.280;2023-04-03T16:05:54;8.70;99.90
8709;DHT22;4391;48.678;9.280;2023-04-03T16:08:22;8.20;99.90
8709;DHT22;4391;48.678;9.280;2023-04-03T16:10:51;7.80;99.90
8709;DHT22;4391;48.678;9.280;2023-04-03T16:13:18;7.60;99.90
8709;DHT22;4391;48.678;9.280;2023-04-03T16:15:45;7.30;99.90
8709;DHT22;4391;48.678;9.280;2023-04-03T16:18:14;7.10;99.90
8709;DHT22;4391;48.678;9.280;2023-04-03T16:20:41;7.00;99.90
8709;DHT22;4391;48.678;9.280;2023-04-03T16:23:09;6.90;99.90
8709;DHT22;4391;48.678;9.280;2023-04-03T16:25:36;6.90;99.90
8709;DHT22;4391;48.678;9.280;2023-04-03T16:28:04;6.90;99.90
8709;DHT22;4391;48.678;9.280;2023-04-03T16:30:32;6.90;99.90
8709;DHT22;4391;48.678;9.280;2023-04-03T16:32:59;7.00;99.90
8709;DHT22;4391;48.678;9.280;2023-04-03T16:35:26;7.10;99.90
8709;DHT22;4391;48.678;9.280;2023-04-03T16:37:54;7.20;99.90
8709;DHT22;4391;48.678;9.280;2023-04-03T16:40:20;7.00;99.90
8709;DHT22;4391;48.678;9.280;2023-04-03T16:42:47;6.90;99.90
8709;DHT22;4391;48.678;9.280;2023-04-03T16:45:15;6.80;99.90
8709;DHT22;4391;48.678;9.280;2023-04-03T16:47:42;6.80;99.90
8709;DHT22;4391;48.678;9.280;2023-04-03T16:50:10;6.90;99.90